Pagina principale
METAR-TAF:

METAR-TAF

Aeroporti :

Aeroporto di Grosseto

Grosseto, Italia

latitudine: 42-45N, longitudine: 011-04E, altezza: 5 m

Osservazione

Il bollettino è stato emesso 1 ora e 7 minuti fa, alle 01:55 UTC
Vento 5 kt da nord/nord-est
Temperature 14°C
Umidità 94%
Pressione 1014 hPa
Visibilità 10 km o più
nessuna nube inferiore a 1500 m e nessun cumulonembo

METAR: LIRS 160155Z 02005KT CAVOK 14/13 Q1014 RMK FEW FEW100 VIS MIN 9999 WIND THR03 32002KT WIND THR21 35003KT BLU

Ora: 05:02 (03:02 UTC)

Previsione

Il bollettino è stato emesso 1 ora e 2 minuti fa, alle 02:00 UTC
Previsione valida dal 16 alle 03 UTC al 16 alle 12 UTC
Vento 6 kt da nord/nord-est
Visibilità 10 km o più
nessuna nube inferiore a 1500 m e nessun cumulonembo

TAF: LIRS 160200Z 1603/1612 02006KT CAVOK

Osservazioni e previsioni meteorologiche di più di 4000 aeroporti (messaggi METAR e TAF).

Le stazioni disponibili sono rappresentate dai dischi gialli e rossi sulla carta.

Puntare il mouse per vedere il nome della stazione.

Clicca sopra per visualizzare le osservazioni e previsioni meteorologiche.

Per cambiare la mappa : fare clic sui pulsanti verdi con una croce nera per ingrandire, il pulsante verde con un trattino per diminuire, o sulla freccia verde per le mappe adiacenti.


METAR-TAF: